Time;durP1;ratioP1;P1;durP2;ratioP2;P2;SDS_P1;SDS_P2;PMS_P1;PMS_P2;Temp;Humidity;BMP_temperature;BMP_pressure;BME280_temperature;BME280_humidity;BME280_pressure;Samples;Min_cycle;Max_cycle;Signal;HPM_P1;HPM_P2
2023/09/06 00:01:10;;;;;;;9.88;3.05;;;;;;;17.85;100.00;100176.78;12190380;19;20011;-87
2023/09/06 00:05:13;;;;;;;6.43;3.35;;;;;;;17.87;100.00;100173.69;12206832;19;20003;-87
2023/09/06 00:09:14;;;;;;;8.47;3.63;;;;;;;17.89;100.00;100179.81;12206943;19;20033;-86
2023/09/06 00:13:21;;;;;;;5.75;3.13;;;;;;;17.89;100.00;100180.63;12203739;19;20031;-87
2023/09/06 00:17:24;;;;;;;6.22;3.03;;;;;;;17.88;100.00;100178.97;12207310;19;20010;-86
2023/09/06 00:21:27;;;;;;;9.90;3.53;;;;;;;17.87;100.00;100177.31;12210571;19;20011;-88
2023/09/06 00:25:31;;;;;;;6.60;2.85;;;;;;;17.83;100.00;100179.00;12185293;19;20010;-87
2023/09/06 00:29:59;;;;;;;5.35;2.78;;;;;;;17.83;100.00;100169.81;12200541;19;20035;-87
2023/09/06 00:34:15;;;;;;;6.88;3.00;;;;;;;17.81;100.00;100166.47;12184867;19;20384;-87
2023/09/06 00:43:01;;;;;;;7.30;2.92;;;;;;;17.82;100.00;100157.84;12175185;19;20528;-86
2023/09/06 00:47:03;;;;;;;5.45;2.75;;;;;;;17.83;100.00;100155.88;12197696;19;20126;-86
2023/09/06 00:51:36;;;;;;;6.68;3.20;;;;;;;17.81;100.00;100153.38;12214536;19;20015;-87
2023/09/06 00:55:38;;;;;;;;;;;;;;;17.80;100.00;100162.88;12195648;19;20136;-87
2023/09/06 00:59:41;;;;;;;4.97;2.67;;;;;;;17.77;100.00;100164.28;12217764;19;19915;-87
2023/09/06 01:03:53;;;;;;;6.78;2.70;;;;;;;17.82;100.00;100156.97;12198483;19;20785;-87
2023/09/06 01:13:08;;;;;;;9.07;2.92;;;;;;;17.80;100.00;100162.88;12192396;19;20021;-88
2023/09/06 01:17:16;;;;;;;8.07;2.90;;;;;;;17.74;100.00;100159.25;12214741;19;20010;-87
2023/09/06 01:21:23;;;;;;;5.43;2.92;;;;;;;17.68;100.00;100165.16;12216176;19;20069;-87
2023/09/06 01:25:40;;;;;;;4.97;2.80;;;;;;;17.59;100.00;100167.72;12195920;19;20006;-87
2023/09/06 01:30:07;;;;;;;7.75;3.10;;;;;;;17.55;100.00;100152.69;12214431;19;20508;-87
2023/09/06 01:39:17;;;;;;;7.10;2.80;;;;;;;17.45;100.00;100136.84;12213953;19;20018;-86
2023/09/06 01:49:03;;;;;;;4.85;2.90;;;;;;;17.27;100.00;100123.59;12210749;19;20022;-86
2023/09/06 01:53:13;;;;;;;6.35;3.00;;;;;;;17.24;100.00;100116.63;12213366;19;20114;-86
2023/09/06 01:57:31;;;;;;;7.10;3.13;;;;;;;17.25;100.00;100117.47;12210068;19;20052;-87
2023/09/06 02:01:35;;;;;;;4.63;2.85;;;;;;;17.22;100.00;100124.47;12175630;19;20393;-88
2023/09/06 02:05:43;;;;;;;7.93;3.25;;;;;;;17.24;100.00;100125.00;12201058;19;20603;-86
2023/09/06 02:14:32;;;;;;;9.05;3.30;;;;;;;17.34;100.00;100129.69;12201262;19;20009;-87
2023/09/06 02:18:41;;;;;;;;;;;;;;;17.36;100.00;100126.59;12199647;19;20006;-87
2023/09/06 02:22:59;;;;;;;7.50;3.05;;;;;;;17.36;100.00;100130.22;12185411;19;19911;-88
2023/09/06 02:27:13;;;;;;;6.40;3.05;;;;;;;17.37;100.00;100131.06;12203447;19;20367;-87
2023/09/06 02:31:46;;;;;;;7.20;3.00;;;;;;;17.38;100.00;100135.53;12179195;19;20006;-89
2023/09/06 02:35:59;;;;;;;4.57;3.08;;;;;;;17.37;100.00;100134.69;12193009;19;20023;-86
2023/09/06 02:40:12;;;;;;;7.18;3.17;;;;;;;17.36;100.00;100137.75;12171851;19;20002;-86
2023/09/06 02:44:16;;;;;;;6.22;3.22;;;;;;;17.35;100.00;100147.25;12198224;19;20013;-87
2023/09/06 02:48:21;;;;;;;7.55;3.80;;;;;;;17.31;100.00;100141.38;12199900;19;20022;-87
2023/09/06 02:52:37;;;;;;;7.13;3.00;;;;;;;17.31;100.00;100142.25;12177961;19;20010;-86
2023/09/06 02:57:14;;;;;;;6.10;3.58;;;;;;;17.33;100.00;100149.47;12202646;19;20031;-86
2023/09/06 03:01:44;;;;;;;6.43;3.22;;;;;;;17.34;100.00;100145.56;12181677;19;20003;-88
2023/09/06 03:06:32;;;;;;;7.68;3.92;;;;;;;17.28;100.00;100147.53;12197080;19;20038;-87
2023/09/06 03:10:40;;;;;;;7.90;3.47;;;;;;;17.22;100.00;100143.97;12172764;19;20010;-86
2023/09/06 03:14:47;;;;;;;7.82;3.65;;;;;;;17.18;100.00;100150.38;12193556;19;20007;-86
2023/09/06 03:19:23;;;;;;;8.35;4.00;;;;;;;17.16;100.00;100147.84;12173460;19;20806;-88
2023/09/06 03:23:29;;;;;;;7.32;4.25;;;;;;;17.13;100.00;100145.66;12205201;19;20006;-87
2023/09/06 03:27:35;;;;;;;6.22;3.33;;;;;;;17.14;100.00;100152.91;12197345;19;20006;-86
2023/09/06 03:31:46;;;;;;;10.23;4.15;;;;;;;17.11;100.00;100139.56;12174437;19;20387;-86
2023/09/06 03:35:50;;;;;;;6.57;3.30;;;;;;;17.09;100.00;100136.22;12196468;19;20581;-86
2023/09/06 03:39:58;;;;;;;11.05;4.22;;;;;;;17.08;100.00;100146.53;12175652;19;20023;-87
2023/09/06 03:44:04;;;;;;;5.80;3.22;;;;;;;17.09;100.00;100136.22;12204801;19;20007;-87
2023/09/06 03:48:12;;;;;;;5.75;3.35;;;;;;;17.12;100.00;100138.41;12196362;19;20018;-85
2023/09/06 03:52:29;;;;;;;7.45;3.40;;;;;;;17.13;100.00;100145.66;12176053;19;20007;-87
2023/09/06 03:56:38;;;;;;;7.38;3.70;;;;;;;17.14;100.00;100147.34;12196169;19;20011;-87
2023/09/06 04:00:44;;;;;;;7.75;3.90;;;;;;;17.13;100.00;100144.81;12181359;19;20010;-90
2023/09/06 04:04:55;;;;;;;;;;;;;;;17.12;100.00;100151.50;12198642;19;20028;-87
2023/09/06 04:08:58;;;;;;;;;;;;;;;17.14;100.00;100143.72;12195524;19;19915;-86
2023/09/06 04:13:04;;;;;;;5.90;3.63;;;;;;;17.13;100.00;100145.66;12176029;19;19911;-86
2023/09/06 04:17:08;;;;;;;7.10;3.38;;;;;;;17.08;100.00;100152.09;12192325;19;20420;-86
2023/09/06 04:21:11;;;;;;;10.57;4.43;;;;;;;17.07;100.00;100152.34;12194063;19;20014;-86
2023/09/06 04:25:17;;;;;;;7.55;4.40;;;;;;;17.02;100.00;100155.19;12171273;19;20019;-86
2023/09/06 04:29:19;;;;;;;7.20;3.53;;;;;;;16.97;100.00;100169.94;12193613;19;20390;-86
2023/09/06 04:33:22;;;;;;;8.07;4.03;;;;;;;16.93;100.00;100168.03;12192519;19;20466;-86
2023/09/06 04:37:29;;;;;;;7.55;3.70;;;;;;;16.85;100.00;100178.59;12177267;19;20006;-85
2023/09/06 04:41:37;;;;;;;8.48;3.80;;;;;;;16.79;100.00;100171.38;12193473;19;20014;-85
2023/09/06 04:45:43;;;;;;;7.50;3.83;;;;;;;16.74;100.00;100165.78;12173616;19;20074;-85
2023/09/06 04:49:46;;;;;;;9.77;4.35;;;;;;;16.71;100.00;100169.16;12193815;19;20665;-85
2023/09/06 04:53:49;;;;;;;8.88;4.13;;;;;;;16.71;100.00;100168.31;12191965;19;20094;-85
2023/09/06 04:58:00;;;;;;;6.95;3.38;;;;;;;16.69;100.00;100168.63;12171781;19;20381;-85
2023/09/06 05:02:03;;;;;;;6.88;3.63;;;;;;;16.70;100.00;100175.84;12192611;19;20010;-85
2023/09/06 05:06:05;;;;;;;8.77;3.70;;;;;;;16.66;100.00;100169.19;12194740;19;20007;-86
2023/09/06 05:10:11;;;;;;;7.00;4.05;;;;;;;16.70;100.00;100172.22;12173450;19;20965;-86
2023/09/06 05:14:19;;;;;;;7.13;4.72;;;;;;;16.70;100.00;100177.78;12195923;19;20044;-85
2023/09/06 05:18:23;;;;;;;11.20;4.30;;;;;;;16.73;100.00;100180.84;12194370;19;20039;-86
2023/09/06 05:22:41;;;;;;;8.68;3.50;;;;;;;16.75;100.00;100191.69;12170653;19;21076;-85
2023/09/06 05:26:45;;;;;;;8.95;4.25;;;;;;;16.77;100.00;100192.25;12198490;19;20013;-86
2023/09/06 05:31:16;;;;;;;8.77;4.35;;;;;;;16.82;100.00;100192.25;12176612;19;20011;-87
2023/09/06 05:35:18;;;;;;;9.43;4.30;;;;;;;16.85;100.00;100195.31;12207972;19;20014;-85
2023/09/06 05:39:21;;;;;;;7.20;3.90;;;;;;;16.91;100.00;100201.69;12260480;19;19995;-85
2023/09/06 05:43:23;;;;;;;7.82;4.32;;;;;;;16.95;100.00;100204.75;12244888;19;20014;-86
2023/09/06 05:47:25;;;;;;;8.85;4.13;;;;;;;17.00;100.00;100201.94;12250850;19;20046;-85
2023/09/06 05:51:28;;;;;;;7.75;3.85;;;;;;;17.02;100.00;100200.56;12192825;19;20109;-87
2023/09/06 05:55:31;;;;;;;12.15;4.65;;;;;;;17.06;100.00;100200.81;12191324;19;20003;-87
2023/09/06 05:59:36;;;;;;;6.30;3.80;;;;;;;17.12;100.00;100205.25;12184709;19;20006;-86
2023/09/06 06:03:38;;;;;;;5.93;3.75;;;;;;;17.12;100.00;100199.69;12186431;19;20007;-86
2023/09/06 06:07:43;;;;;;;6.70;3.60;;;;;;;17.19;100.00;100204.94;12208020;19;20006;-88
2023/09/06 06:11:47;;;;;;;7.45;3.92;;;;;;;17.26;100.00;100217.47;12205704;19;20024;-87
2023/09/06 06:15:49;;;;;;;6.93;4.00;;;;;;;17.27;100.00;100216.31;12183503;19;20716;-87
2023/09/06 06:19:51;;;;;;;11.47;4.53;;;;;;;17.33;100.00;100208.78;12199041;19;19998;-87
2023/09/06 06:24:01;;;;;;;9.23;4.53;;;;;;;17.40;100.00;100211.25;12203072;19;20016;-88
2023/09/06 06:28:07;;;;;;;8.93;4.63;;;;;;;17.57;100.00;100214.53;12179614;19;20010;-86
2023/09/06 06:32:12;;;;;;;8.25;4.80;;;;;;;17.66;100.00;100218.38;12201484;19;20007;-84
2023/09/06 06:36:16;;;;;;;9.95;4.45;;;;;;;17.73;100.00;100221.69;12201171;19;20106;-85
2023/09/06 06:40:19;;;;;;;9.20;4.80;;;;;;;17.79;100.00;100225.31;12174679;19;20010;-84
2023/09/06 06:44:22;;;;;;;6.55;4.60;;;;;;;17.87;100.00;100221.91;12206318;19;20023;-85
2023/09/06 06:48:24;;;;;;;7.03;4.28;;;;;;;17.99;100.00;100235.50;12198606;19;20022;-84
2023/09/06 06:52:30;;;;;;;7.27;4.60;;;;;;;18.14;100.00;100229.81;12182527;19;20024;-85
2023/09/06 06:56:33;;;;;;;8.88;4.22;;;;;;;18.36;100.00;100242.50;12202355;19;20014;-84
2023/09/06 07:00:36;;;;;;;8.05;4.47;;;;;;;18.54;100.00;100246.53;12200649;19;20007;-84
2023/09/06 07:04:37;;;;;;;7.73;4.53;;;;;;;18.72;100.00;100248.59;12184209;19;20888;-85
2023/09/06 07:08:40;;;;;;;6.10;4.28;;;;;;;18.88;100.00;100252.09;12201866;19;20520;-84
2023/09/06 07:12:42;;;;;;;7.47;4.28;;;;;;;19.08;100.00;100251.88;12181039;19;20025;-84
2023/09/06 07:16:46;;;;;;;8.32;4.30;;;;;;;19.25;100.00;100242.22;12200847;19;20014;-84
2023/09/06 07:20:54;;;;;;;6.40;4.35;;;;;;;19.46;100.00;100251.19;12197660;19;20018;-85
2023/09/06 07:24:57;;;;;;;9.90;4.15;;;;;;;19.68;100.00;100256.25;12183634;19;20008;-84
2023/09/06 07:29:00;;;;;;;6.03;4.60;;;;;;;19.88;100.00;100253.16;12199428;19;20007;-85
2023/09/06 07:33:03;;;;;;;6.85;3.85;;;;;;;20.10;99.63;100248.94;12197524;19;20007;-85
2023/09/06 07:37:06;;;;;;;10.57;4.40;;;;;;;20.39;98.43;100258.00;12179582;19;20014;-85
2023/09/06 07:41:12;;;;;;;7.15;4.40;;;;;;;20.61;96.10;100256.53;12200304;19;20007;-86
2023/09/06 07:45:17;;;;;;;7.68;3.90;;;;;;;20.90;93.51;100261.91;12200723;19;20071;-84
2023/09/06 07:49:20;;;;;;;5.80;3.42;;;;;;;21.14;91.81;100267.34;12183230;19;20013;-83
2023/09/06 07:53:28;;;;;;;6.85;3.45;;;;;;;21.38;90.03;100262.41;12203190;19;20031;-84
2023/09/06 07:57:34;;;;;;;7.60;3.83;;;;;;;21.58;85.85;100271.56;12206128;19;20010;-84
2023/09/06 08:01:36;;;;;;;8.80;4.10;;;;;;;21.81;84.17;100269.69;12176182;19;20006;-83
2023/09/06 08:05:43;;;;;;;7.00;3.92;;;;;;;22.10;83.14;100269.31;12197773;19;20107;-83
2023/09/06 08:09:45;;;;;;;6.55;3.65;;;;;;;22.34;81.58;100271.88;12171445;19;20015;-83
2023/09/06 08:13:48;;;;;;;5.93;3.78;;;;;;;22.50;79.51;100275.94;12198326;19;20405;-83
2023/09/06 08:17:52;;;;;;;6.10;3.78;;;;;;;22.69;78.45;100284.16;12229723;19;20006;-85
2023/09/06 08:21:55;;;;;;;;;;;;;;;22.74;79.03;100284.06;12215919;19;20011;-83
2023/09/06 08:25:57;;;;;;;7.45;3.88;;;;;;;22.90;77.38;100290.13;12241238;19;19961;-83
2023/09/06 08:30:13;;;;;;;6.93;4.53;;;;;;;23.05;76.78;100288.88;12238029;19;20010;-86
2023/09/06 08:34:16;;;;;;;5.47;3.78;;;;;;;23.22;74.55;100293.78;12227234;19;19998;-84
2023/09/06 08:38:18;;;;;;;6.85;4.15;;;;;;;23.43;74.51;100292.06;12240148;19;20010;-83
2023/09/06 08:42:24;;;;;;;7.25;3.85;;;;;;;23.65;73.46;100291.16;12220803;19;20010;-83
2023/09/06 08:46:29;;;;;;;5.10;3.92;;;;;;;23.93;73.48;100281.66;12189213;19;20011;-84
2023/09/06 08:50:33;;;;;;;6.07;3.75;;;;;;;24.20;71.49;100292.63;12246195;19;19998;-85
2023/09/06 08:54:35;;;;;;;5.78;3.95;;;;;;;24.32;66.43;100295.63;12214874;19;20453;-84
2023/09/06 08:58:38;;;;;;;6.95;4.25;;;;;;;24.54;66.94;100293.84;12192120;19;20011;-84
2023/09/06 09:02:46;;;;;;;7.15;3.75;;;;;;;24.74;65.98;100293.16;12242793;19;20040;-85
2023/09/06 09:06:49;;;;;;;7.40;4.15;;;;;;;24.92;65.90;100281.84;12216618;19;20045;-84
2023/09/06 09:11:08;;;;;;;8.43;3.80;;;;;;;25.17;65.73;100280.19;12211981;19;20011;-84
2023/09/06 09:15:10;;;;;;;8.43;4.18;;;;;;;25.30;63.95;100290.41;12227983;19;20014;-83
2023/09/06 09:19:15;;;;;;;7.25;4.03;;;;;;;25.42;64.09;100293.34;12206497;19;20010;-83
2023/09/06 09:23:17;;;;;;;6.85;4.32;;;;;;;25.50;63.74;100291.66;12222726;19;20003;-82
2023/09/06 09:27:23;;;;;;;7.70;4.57;;;;;;;25.52;61.81;100288.47;12215060;19;20011;-86
2023/09/06 09:31:27;;;;;;;7.13;4.43;;;;;;;25.58;61.13;100287.13;12190314;19;20006;-88
2023/09/06 09:35:31;;;;;;;8.70;4.57;;;;;;;25.63;60.22;100289.75;12212228;19;19999;-85
2023/09/06 09:39:37;;;;;;;5.78;3.80;;;;;;;25.79;59.27;100275.88;12211492;19;20092;-84
2023/09/06 09:43:39;;;;;;;5.05;3.40;;;;;;;25.85;58.59;100272.59;12187283;19;20018;-83
2023/09/06 09:47:42;;;;;;;6.13;4.00;;;;;;;25.98;56.14;100265.00;12215295;19;20018;-83
2023/09/06 09:51:54;;;;;;;5.75;3.40;;;;;;;26.17;56.37;100270.19;12186957;19;19998;-82
2023/09/06 09:55:59;;;;;;;6.55;4.68;;;;;;;26.36;54.37;100270.53;12206619;19;20028;-82
2023/09/06 10:00:06;;;;;;;5.63;3.90;;;;;;;26.55;53.55;100278.56;12207395;19;20014;-82
2023/09/06 10:04:14;;;;;;;5.25;3.70;;;;;;;26.66;52.17;100264.81;12192115;19;20010;-84
2023/09/06 10:08:18;;;;;;;5.68;4.20;;;;;;;26.77;52.29;100263.22;12207699;19;20077;-83
2023/09/06 10:12:21;;;;;;;6.35;4.03;;;;;;;26.92;52.13;100258.91;12208635;19;20006;-83
2023/09/06 10:16:25;;;;;;;6.57;3.65;;;;;;;26.99;49.77;100253.50;12185507;19;20524;-85
2023/09/06 10:20:34;;;;;;;6.22;3.97;;;;;;;27.17;49.93;100261.81;12214131;19;20003;-86
2023/09/06 10:24:38;;;;;;;7.97;3.88;;;;;;;27.29;49.07;100258.19;12212316;19;20014;-84
2023/09/06 10:28:43;;;;;;;5.82;3.72;;;;;;;27.45;47.90;100256.31;12208315;19;20002;-84
2023/09/06 10:32:47;;;;;;;5.40;3.95;;;;;;;27.62;47.60;100256.06;12209754;19;20010;-85
2023/09/06 10:36:57;;;;;;;6.53;4.10;;;;;;;27.81;47.18;100254.66;12178489;19;20086;-84
2023/09/06 10:40:59;;;;;;;6.53;4.15;;;;;;;28.08;48.38;100248.28;12204298;19;20070;-84
2023/09/06 10:45:04;;;;;;;4.63;3.67;;;;;;;28.23;48.23;100243.03;12208793;19;20021;-84
2023/09/06 10:49:12;;;;;;;6.70;4.00;;;;;;;28.20;49.30;100233.25;12183898;19;20056;-85
2023/09/06 10:53:19;;;;;;;5.68;4.18;;;;;;;28.29;47.87;100239.59;12104779;19;20002;-85
2023/09/06 10:57:21;;;;;;;6.18;3.80;;;;;;;28.34;46.94;100230.00;12168268;19;20014;-83
2023/09/06 11:01:24;;;;;;;;;;;;;;;28.35;47.62;100228.84;12159978;19;20007;-84
2023/09/06 11:05:37;;;;;;;7.78;4.40;;;;;;;28.53;47.61;100227.38;12190678;19;19920;-83
2023/09/06 11:09:43;;;;;;;7.97;4.05;;;;;;;28.67;47.31;100223.28;12179344;19;20030;-85
2023/09/06 11:13:45;;;;;;;9.35;4.30;;;;;;;28.75;46.73;100217.44;12194403;19;20017;-83
2023/09/06 11:17:47;;;;;;;6.72;4.05;;;;;;;28.86;46.10;100220.59;12197480;19;20019;-84
2023/09/06 11:22:03;;;;;;;6.72;4.15;;;;;;;29.08;46.03;100216.34;12165357;19;21344;-84
2023/09/06 11:26:05;;;;;;;7.60;4.63;;;;;;;29.23;45.77;100206.16;12195561;19;20007;-83
2023/09/06 11:30:15;;;;;;;9.52;4.30;;;;;;;29.26;45.30;100211.94;12198962;19;20034;-83
2023/09/06 11:34:19;;;;;;;5.15;3.70;;;;;;;29.38;44.52;100201.69;12174368;19;20006;-82
2023/09/06 11:38:28;;;;;;;6.03;3.72;;;;;;;29.67;42.60;100204.06;12194543;19;20078;-81
2023/09/06 11:42:33;;;;;;;6.18;2.97;;;;;;;29.85;40.89;100197.97;12199923;19;20022;-82
2023/09/06 11:46:42;;;;;;;4.82;3.38;;;;;;;30.39;39.93;100194.28;12176610;19;20006;-83
2023/09/06 11:50:47;;;;;;;5.53;3.63;;;;;;;31.12;39.04;100198.16;12198891;19;20006;-82
2023/09/06 11:54:52;;;;;;;6.78;3.63;;;;;;;31.77;38.07;100189.47;12173701;19;20006;-83
2023/09/06 11:58:56;;;;;;;6.00;3.42;;;;;;;32.29;36.97;100175.53;12192391;19;20002;-84
2023/09/06 12:03:07;;;;;;;4.68;3.60;;;;;;;32.68;36.87;100178.03;12196840;19;20014;-87
2023/09/06 12:07:10;;;;;;;;;;;;;;;33.11;36.68;100176.47;12167807;19;20007;-84
2023/09/06 12:11:21;;;;;;;5.85;3.35;;;;;;;33.54;33.29;100168.25;12192527;19;19926;-87
2023/09/06 12:15:25;;;;;;;3.95;3.28;;;;;;;33.74;32.87;100153.69;12194752;19;20033;-85
2023/09/06 12:19:26;;;;;;;5.30;3.65;;;;;;;34.14;33.16;100151.88;12167765;19;20492;-83
2023/09/06 12:23:29;;;;;;;4.85;3.35;;;;;;;34.68;32.64;100147.16;12195222;19;20015;-83
2023/09/06 12:27:31;;;;;;;4.95;3.63;;;;;;;34.96;30.90;100145.56;12201350;19;20062;-83
2023/09/06 12:31:34;;;;;;;4.82;3.72;;;;;;;35.47;31.25;100138.59;12177934;19;20497;-85
2023/09/06 12:35:44;;;;;;;4.93;3.93;;;;;;;35.97;30.67;100139.31;12196324;19;20022;-83
2023/09/06 12:39:46;;;;;;;4.72;3.67;;;;;;;36.31;29.68;100126.50;12169632;19;20450;-83
2023/09/06 12:43:52;;;;;;;5.97;3.45;;;;;;;36.91;30.01;100125.28;12193443;19;20007;-86
2023/09/06 12:47:56;;;;;;;6.72;3.22;;;;;;;36.75;28.03;100122.16;12191635;19;20019;-85
2023/09/06 12:51:58;;;;;;;5.80;3.72;;;;;;;37.16;28.28;100114.44;12172677;19;20070;-83
2023/09/06 12:56:02;;;;;;;6.43;3.40;;;;;;;37.74;27.61;100111.00;12191676;19;21775;-84
2023/09/06 13:00:07;;;;;;;4.82;3.33;;;;;;;38.22;27.31;100107.94;12189973;19;20018;-85
2023/09/06 13:04:09;;;;;;;4.78;3.58;;;;;;;38.45;26.45;100101.47;12174233;19;20006;-84
2023/09/06 13:08:11;;;;;;;3.92;3.33;;;;;;;38.58;25.47;100098.00;12190541;19;20035;-84
2023/09/06 13:12:16;;;;;;;5.97;3.55;;;;;;;38.53;26.03;100091.50;12193627;19;21522;-84
2023/09/06 13:16:18;;;;;;;4.35;3.05;;;;;;;38.91;25.79;100094.22;12169151;19;19998;-85
2023/09/06 13:20:20;;;;;;;5.88;3.80;;;;;;;39.51;24.49;100093.59;12197984;19;20465;-83
2023/09/06 13:24:21;;;;;;;5.00;3.10;;;;;;;39.66;24.27;100086.28;12197023;19;20014;-85
2023/09/06 13:28:26;;;;;;;4.40;2.97;;;;;;;40.03;23.59;100082.22;12169064;19;20525;-83
2023/09/06 13:32:28;;;;;;;4.22;3.00;;;;;;;40.23;23.73;100075.63;12191223;19;20003;-83
2023/09/06 13:36:35;;;;;;;5.53;3.28;;;;;;;40.29;23.58;100073.84;12189434;19;20007;-84
2023/09/06 13:40:37;;;;;;;4.07;3.20;;;;;;;40.40;23.54;100059.97;12174290;19;20022;-85
2023/09/06 13:44:39;;;;;;;5.75;3.50;;;;;;;40.62;23.05;100057.41;12198078;19;20003;-84
2023/09/06 13:48:41;;;;;;;4.03;3.20;;;;;;;40.70;23.12;100055.97;12180402;19;20002;-84
2023/09/06 13:52:43;;;;;;;3.58;3.13;;;;;;;40.66;22.72;100054.41;12203773;19;20010;-85
2023/09/06 13:56:51;;;;;;;3.80;2.95;;;;;;;40.42;22.26;100063.22;12211149;19;20018;-83
2023/09/06 14:00:55;;;;;;;4.68;3.00;;;;;;;39.96;22.73;100053.53;12218295;19;20006;-86
2023/09/06 14:04:57;;;;;;;4.53;3.03;;;;;;;38.67;23.62;100052.19;12228314;19;20014;-83
2023/09/06 14:09:00;;;;;;;3.83;3.03;;;;;;;37.14;24.84;100068.09;12224798;19;20014;-83
2023/09/06 14:13:02;;;;;;;4.60;3.78;;;;;;;35.63;26.58;100055.06;12203002;19;20754;-82
2023/09/06 14:17:04;;;;;;;4.13;3.33;;;;;;;34.63;27.22;100058.84;12229047;19;20003;-86
2023/09/06 14:21:06;;;;;;;4.05;3.50;;;;;;;33.96;28.35;100058.22;12248014;19;20025;-84
2023/09/06 14:25:08;;;;;;;4.35;3.20;;;;;;;33.39;28.98;100049.38;12232224;19;20034;-86
2023/09/06 14:29:11;;;;;;;3.50;2.85;;;;;;;32.89;29.45;100054.69;12253270;19;20501;-86
2023/09/06 14:33:14;;;;;;;6.18;3.25;;;;;;;32.67;29.97;100048.81;12216853;19;20010;-86
2023/09/06 14:37:16;;;;;;;4.47;2.67;;;;;;;32.71;30.05;100042.34;12191173;19;20010;-86
2023/09/06 14:41:23;;;;;;;4.32;3.08;;;;;;;33.04;29.42;100036.50;12206167;19;20015;-84
2023/09/06 14:45:26;;;;;;;5.53;3.00;;;;;;;33.45;29.43;100041.25;12212068;19;20010;-88
2023/09/06 14:49:38;;;;;;;4.15;2.70;;;;;;;34.18;29.13;100027.69;12186022;19;20003;-85
2023/09/06 14:53:55;;;;;;;6.32;2.83;;;;;;;34.37;28.99;100023.63;12205898;19;20388;-87
2023/09/06 14:58:14;;;;;;;5.25;2.80;;;;;;;34.01;29.56;100032.09;12183665;19;20022;-85
2023/09/06 15:02:33;;;;;;;5.35;3.03;;;;;;;34.03;29.08;100028.91;12192946;19;20115;-85
2023/09/06 15:06:40;;;;;;;3.97;2.95;;;;;;;33.79;29.62;100022.66;12177996;19;20468;-83
2023/09/06 15:11:00;;;;;;;3.53;2.53;;;;;;;33.25;30.56;100027.25;12200302;19;20006;-87
2023/09/06 15:15:06;;;;;;;4.90;2.88;;;;;;;32.58;31.53;100031.22;12195762;19;20011;-85
2023/09/06 15:19:31;;;;;;;3.80;2.63;;;;;;;32.14;32.05;100026.28;12174234;19;20019;-85
2023/09/06 15:23:33;;;;;;;6.55;3.55;;;;;;;32.06;32.36;100018.03;12197735;19;20031;-84
2023/09/06 15:27:35;;;;;;;;;;;;;;;31.70;32.55;100024.13;12194828;19;20042;-85
2023/09/06 15:31:41;;;;;;;4.85;3.03;;;;;;;31.39;34.07;100024.53;12177152;19;19914;-84
2023/09/06 15:35:43;;;;;;;;;;;;;;;31.14;33.91;100024.94;12194484;19;20010;-87
2023/09/06 15:39:51;;;;;;;12.82;2.92;;;;;;;31.50;33.26;100022.63;12172870;19;19911;-88
2023/09/06 15:43:52;;;;;;;7.25;2.63;;;;;;;31.41;34.25;100019.25;12194060;19;20062;-86
2023/09/06 15:47:55;;;;;;;4.35;3.13;;;;;;;30.92;35.25;100012.44;12198782;19;20018;-85
2023/09/06 15:51:57;;;;;;;4.70;2.92;;;;;;;30.49;35.16;100016.56;12178027;19;20542;-88
2023/09/06 15:55:59;;;;;;;4.65;2.90;;;;;;;30.18;36.75;100018.41;12219304;19;20010;-87
2023/09/06 16:00:02;;;;;;;5.60;2.70;;;;;;;29.92;36.75;100024.81;12199505;19;20122;-87
2023/09/06 16:04:16;;;;;;;4.75;2.67;;;;;;;29.77;36.86;100020.88;12169324;19;19999;-85
2023/09/06 16:08:19;;;;;;;5.47;3.10;;;;;;;29.71;37.45;100011.00;12198361;19;20011;-84
2023/09/06 16:12:21;;;;;;;4.53;3.10;;;;;;;29.76;38.67;100027.75;12195611;19;20007;-87
2023/09/06 16:16:23;;;;;;;4.43;2.88;;;;;;;29.70;37.52;100027.22;12172492;19;20007;-84
2023/09/06 16:20:25;;;;;;;4.65;2.92;;;;;;;29.57;38.17;100010.69;12192874;19;20010;-84
2023/09/06 16:24:28;;;;;;;4.47;2.80;;;;;;;29.71;38.44;100020.34;12191132;19;20015;-84
2023/09/06 16:28:30;;;;;;;4.18;2.75;;;;;;;29.73;39.80;100012.28;12173704;19;20373;-84
2023/09/06 16:32:33;;;;;;;5.75;2.85;;;;;;;29.48;40.20;100013.75;12196139;19;20006;-86
2023/09/06 16:36:35;;;;;;;3.63;2.65;;;;;;;29.29;40.79;100021.03;12204734;19;20006;-85
2023/09/06 16:40:41;;;;;;;5.50;2.70;;;;;;;29.04;40.67;100017.66;12179311;19;20003;-86
2023/09/06 16:44:43;;;;;;;4.30;2.58;;;;;;;28.79;41.77;100005.69;12196666;19;20118;-86
2023/09/06 16:48:46;;;;;;;5.57;2.90;;;;;;;28.51;42.30;100011.47;12176048;19;20013;-85
2023/09/06 16:52:54;;;;;;;6.13;2.80;;;;;;;28.27;44.17;100015.28;12196990;19;19999;-86
2023/09/06 16:56:56;;;;;;;4.38;2.85;;;;;;;28.01;44.41;100010.09;12195104;19;20007;-86
2023/09/06 17:00:59;;;;;;;5.18;2.90;;;;;;;27.78;45.64;100012.69;12171528;19;20437;-85
2023/09/06 17:05:06;;;;;;;6.05;3.08;;;;;;;27.57;46.82;100006.41;12196837;19;20010;-85
2023/09/06 17:09:19;;;;;;;4.63;2.90;;;;;;;27.33;48.25;100013.78;12194745;19;20098;-88
2023/09/06 17:13:22;;;;;;;7.50;2.95;;;;;;;27.08;49.08;100015.00;12171601;19;20366;-86
2023/09/06 17:17:28;;;;;;;6.22;3.00;;;;;;;26.86;51.25;100010.66;12202954;19;20007;-87
2023/09/06 17:21:30;;;;;;;4.70;3.25;;;;;;;26.59;52.17;100011.03;12199856;19;20704;-88
2023/09/06 17:25:35;;;;;;;4.15;3.05;;;;;;;26.37;53.23;100000.97;12166421;19;20057;-87
2023/09/06 17:29:43;;;;;;;5.28;3.03;;;;;;;26.14;54.68;100011.06;12191764;19;20019;-87
2023/09/06 17:33:45;;;;;;;4.70;3.17;;;;;;;25.90;56.43;100009.81;12179350;19;20011;-86
2023/09/06 17:37:47;;;;;;;5.53;2.83;;;;;;;25.82;56.32;100001.44;12203808;19;20007;-87
2023/09/06 17:41:55;;;;;;;5.90;3.00;;;;;;;25.60;58.14;100005.44;12201715;19;20030;-87
2023/09/06 17:46:08;;;;;;;4.53;3.00;;;;;;;25.26;59.97;100004.56;12185061;19;20014;-86
2023/09/06 17:50:11;;;;;;;5.68;2.67;;;;;;;24.97;60.85;100008.22;12201042;19;20010;-88
2023/09/06 17:55:10;;;;;;;5.28;2.90;;;;;;;24.69;63.44;100010.72;12189851;19;20020;-86
2023/09/06 17:59:20;;;;;;;9.52;3.13;;;;;;;24.40;65.42;100019.94;12092693;19;2004595;-87
2023/09/06 18:03:25;;;;;;;5.35;3.28;;;;;;;24.14;66.32;100018.03;12191166;19;20022;-85
2023/09/06 18:07:28;;;;;;;5.35;3.40;;;;;;;23.93;67.61;100023.56;12172766;19;20018;-86
2023/09/06 18:11:30;;;;;;;6.47;3.65;;;;;;;23.74;68.81;100028.75;12194559;19;20002;-86
2023/09/06 18:15:32;;;;;;;10.97;3.80;;;;;;;23.52;70.08;100032.50;12193374;19;20011;-86
2023/09/06 18:19:35;;;;;;;5.18;3.30;;;;;;;23.38;70.87;100036.34;12170667;19;20062;-85
2023/09/06 18:23:38;;;;;;;8.07;3.92;;;;;;;23.22;72.41;100037.13;12193803;19;20117;-85
2023/09/06 18:27:40;;;;;;;6.65;3.55;;;;;;;23.03;72.67;100043.06;12176962;19;20006;-86
2023/09/06 18:31:43;;;;;;;6.90;3.70;;;;;;;22.92;73.19;100043.34;12194106;19;20033;-86
2023/09/06 18:35:51;;;;;;;7.10;4.10;;;;;;;22.84;74.81;100051.72;12189044;19;20271;-86
2023/09/06 18:39:53;;;;;;;7.20;3.80;;;;;;;22.70;75.03;100049.88;12173407;19;20017;-85
2023/09/06 18:43:55;;;;;;;7.90;4.27;;;;;;;22.60;74.93;100057.78;12192641;19;20010;-87
2023/09/06 18:47:57;;;;;;;7.25;3.47;;;;;;;22.52;77.04;100054.63;12190779;19;20003;-87
2023/09/06 18:51:59;;;;;;;7.05;3.55;;;;;;;22.47;75.70;100056.72;12168515;19;20532;-86
2023/09/06 18:56:05;;;;;;;6.30;3.40;;;;;;;22.39;75.70;100054.69;12187812;19;20047;-87
2023/09/06 19:00:17;;;;;;;5.57;3.50;;;;;;;22.40;74.68;100060.00;12193042;19;20747;-87
2023/09/06 19:04:19;;;;;;;6.53;3.35;;;;;;;22.42;76.30;100068.91;12172793;19;20007;-87
2023/09/06 19:08:21;;;;;;;6.67;3.47;;;;;;;22.45;74.60;100071.06;12188061;19;20585;-87
2023/09/06 19:12:25;;;;;;;6.22;3.40;;;;;;;22.43;73.85;100072.59;12189172;19;20280;-87
2023/09/06 19:16:31;;;;;;;5.95;3.50;;;;;;;22.43;75.33;100072.59;12165884;19;20003;-86